37.6°F
Current conditions from King Hill
Updated every 5 minutes
 
  Saturday November 22, 2014

Station Historical Data
Daily Summary for August 09, 2012 Units:  English    Metric   Both
« Previous Day
Next Day »
Daily Weekly Monthly Yearly Custom
  High: Low: Average:
Temperature: 80.9 °F 60.0 °F 69.1 °F
Dew Point: 70.6 °F 58.1 °F 64.9 °F
Humidity: 96% 65% 87%
Wind Speed: 5.0mph 0.0mph 2.1mph
Wind Gust: 11.0mph - -
Wind- - SSW
Pressure: 29.91 in 29.82 in -
Precipitation: 0.27 in    
Historical Graphs
 
 
Tabular Data for August 09, 2012
Time Temperature Dew Point Pressure Wind Wind Speed Wind Gust Humidity Daily Rainfall
00:04 61.1 °F 58.1 °F 29.88 in Calm     90% 0.00 in
00:09 61.6 °F 58.9 °F 29.88 in Calm   1.0 mph 91% 0.00 in
00:14 62.0 °F 59.3 °F 29.88 in Calm   1.0 mph 91% 0.00 in
00:19 62.2 °F 59.5 °F 29.88 in Calm     91% 0.00 in
00:24 62.3 °F 59.6 °F 29.88 in Calm     91% 0.00 in
00:29 62.3 °F 59.6 °F 29.88 in Calm     91% 0.00 in
00:34 62.4 °F 59.7 °F 29.88 in Calm     91% 0.00 in
00:39 62.4 °F 59.7 °F 29.88 in Calm     91% 0.00 in
00:44 62.5 °F 59.8 °F 29.89 in Calm     91% 0.00 in
00:49 62.4 °F 59.7 °F 29.88 in Calm     91% 0.00 in
00:54 62.5 °F 59.8 °F 29.88 in Calm     91% 0.00 in
00:59 62.5 °F 59.8 °F 29.88 in Calm     91% 0.00 in
01:04 62.5 °F 59.8 °F 29.88 in Calm     91% 0.00 in
01:09 62.3 °F 59.6 °F 29.88 in Calm     91% 0.00 in
01:14 62.4 °F 59.7 °F 29.88 in Calm     91% 0.00 in
01:19 62.5 °F 59.8 °F 29.88 in Calm     91% 0.00 in
01:24 62.5 °F 59.8 °F 29.88 in Calm     91% 0.00 in
01:29 62.4 °F 59.4 °F 29.88 in Calm     90% 0.00 in
01:34 62.2 °F 59.5 °F 29.88 in Calm     91% 0.00 in
01:39 62.1 °F 59.4 °F 29.88 in Calm     91% 0.00 in
01:44 61.9 °F 58.9 °F 29.88 in Calm     90% 0.00 in
01:49 61.7 °F 58.7 °F 29.88 in Calm     90% 0.00 in
01:54 61.5 °F 58.9 °F 29.88 in Calm     91% 0.00 in
01:59 61.5 °F 58.9 °F 29.88 in Calm     91% 0.00 in
02:04 61.4 °F 58.8 °F 29.87 in Calm     91% 0.00 in
02:14 61.5 °F 58.9 °F 29.88 in Calm     91% 0.00 in
02:19 61.4 °F 58.8 °F 29.87 in Calm     91% 0.00 in
02:24 61.9 °F 59.9 °F 29.87 in Calm   1.0 mph 93% 0.00 in
02:29 61.9 °F 59.6 °F 29.87 in Calm   1.0 mph 92% 0.00 in
02:39 60.9 °F 58.6 °F 29.88 in Calm   2.0 mph 92% 0.00 in
02:44 60.6 °F 58.3 °F 29.87 in Calm   1.0 mph 92% 0.00 in
02:49 60.8 °F 58.5 °F 29.87 in Calm     92% 0.00 in
02:54 60.9 °F 58.6 °F 29.87 in Calm     92% 0.00 in
02:59 61.0 °F 58.7 °F 29.87 in Calm     92% 0.00 in
03:04 61.0 °F 59.0 °F 29.87 in Calm     93% 0.00 in
03:09 61.3 °F 59.3 °F 29.87 in Calm     93% 0.00 in
03:14 61.3 °F 59.3 °F 29.87 in Calm     93% 0.00 in
03:19 61.1 °F 59.1 °F 29.87 in Calm     93% 0.00 in
03:24 60.9 °F 58.9 °F 29.87 in Calm     93% 0.00 in
03:29 60.6 °F 58.6 °F 29.87 in Calm     93% 0.00 in
03:34 60.4 °F 58.4 °F 29.87 in Calm     93% 0.00 in
03:39 60.4 °F 58.4 °F 29.87 in Calm     93% 0.00 in
03:44 60.3 °F 58.3 °F 29.87 in Calm     93% 0.00 in
03:49 60.3 °F 58.3 °F 29.87 in Calm     93% 0.00 in
03:54 60.4 °F 58.4 °F 29.87 in Calm   2.0 mph 93% 0.00 in
03:59 60.7 °F 59.0 °F 29.87 in Calm   2.0 mph 94% 0.00 in
04:04 61.1 °F 59.7 °F 29.87 in Calm   3.0 mph 95% 0.00 in
04:09 61.4 °F 60.0 °F 29.87 in Calm   3.0 mph 95% 0.00 in
04:14 61.6 °F 60.2 °F 29.87 in Calm   3.0 mph 95% 0.00 in
04:19 61.6 °F 60.2 °F 29.87 in Calm   3.0 mph 95% 0.00 in
04:24 61.6 °F 60.2 °F 29.87 in Calm   3.0 mph 95% 0.00 in
04:29 61.6 °F 60.2 °F 29.87 in Calm   3.0 mph 95% 0.00 in
04:39 61.7 °F 60.3 °F 29.87 in Calm   3.0 mph 95% 0.00 in
04:44 61.7 °F 60.3 °F 29.87 in Calm   3.0 mph 95% 0.00 in
04:49 61.8 °F 60.1 °F 29.87 in Calm     94% 0.00 in
04:54 61.6 °F 59.9 °F 29.87 in Calm     94% 0.00 in
04:59 61.4 °F 59.7 °F 29.87 in Calm     94% 0.00 in
05:09 61.1 °F 59.4 °F 29.87 in Calm     94% 0.00 in
05:14 60.9 °F 59.2 °F 29.88 in Calm     94% 0.00 in
05:19 60.7 °F 59.0 °F 29.88 in Calm     94% 0.00 in
05:29 60.4 °F 58.7 °F 29.88 in Calm     94% 0.00 in
05:34 60.5 °F 58.8 °F 29.88 in Calm     94% 0.00 in
05:39 60.5 °F 58.8 °F 29.88 in Calm     94% 0.00 in
05:44 60.5 °F 58.8 °F 29.88 in Calm     94% 0.00 in
05:49 60.5 °F 58.8 °F 29.88 in Calm     94% 0.00 in
05:54 60.4 °F 58.7 °F 29.88 in Calm     94% 0.00 in
05:59 60.3 °F 58.9 °F 29.88 in Calm     95% 0.00 in
06:04 60.2 °F 58.8 °F 29.88 in Calm     95% 0.00 in
06:09 60.2 °F 58.8 °F 29.88 in Calm     95% 0.00 in
06:14 60.2 °F 58.8 °F 29.88 in Calm     95% 0.00 in
06:19 60.1 °F 58.7 °F 29.89 in Calm     95% 0.00 in
06:24 60.0 °F 58.6 °F 29.89 in Calm     95% 0.00 in
06:29 60.1 °F 58.7 °F 29.89 in Calm     95% 0.00 in
06:34 60.3 °F 58.9 °F 29.89 in Calm     95% 0.00 in
06:44 60.7 °F 59.3 °F 29.89 in Calm     95% 0.00 in
06:49 61.0 °F 59.6 °F 29.90 in Calm     95% 0.00 in
06:54 61.3 °F 59.9 °F 29.90 in Calm     95% 0.00 in
06:59 61.7 °F 60.3 °F 29.90 in Calm     95% 0.00 in
07:04 62.1 °F 60.7 °F 29.90 in Calm     95% 0.00 in
07:09 62.7 °F 61.5 °F 29.90 in Calm     96% 0.00 in
07:14 63.3 °F 62.1 °F 29.90 in Calm     96% 0.00 in
07:19 63.7 °F 62.5 °F 29.90 in Calm     96% 0.00 in
07:24 64.0 °F 62.8 °F 29.90 in Calm     96% 0.00 in
07:29 64.4 °F 63.2 °F 29.90 in Calm     96% 0.00 in
07:34 64.9 °F 63.7 °F 29.91 in Calm     96% 0.00 in
07:44 65.7 °F 64.5 °F 29.91 in Calm     96% 0.00 in
07:49 66.3 °F 65.1 °F 29.91 in Calm     96% 0.00 in
07:59 66.1 °F 64.9 °F 29.91 in SW 1.0 mph 5.0 mph 96% 0.00 in
08:04 66.2 °F 65.0 °F 29.91 in SSW 2.0 mph 7.0 mph 96% 0.00 in
08:09 66.6 °F 65.4 °F 29.90 in SSW 1.0 mph 7.0 mph 96% 0.00 in
08:14 67.0 °F 65.5 °F 29.90 in Calm   6.0 mph 95% 0.00 in
08:19 67.4 °F 65.6 °F 29.90 in Calm   5.0 mph 94% 0.00 in
08:24 67.8 °F 65.4 °F 29.90 in Calm   1.0 mph 92% 0.00 in
08:29 68.1 °F 65.1 °F 29.90 in Calm   3.0 mph 90% 0.00 in
08:34 68.6 °F 64.9 °F 29.90 in Calm   3.0 mph 88% 0.00 in
08:39 68.8 °F 64.1 °F 29.90 in SSW 2.0 mph 6.0 mph 85% 0.00 in
08:44 68.9 °F 64.2 °F 29.90 in Calm   6.0 mph 85% 0.00 in
08:49 69.3 °F 64.6 °F 29.90 in SSW 3.0 mph 8.0 mph 85% 0.00 in
08:54 70.0 °F 64.9 °F 29.90 in SSW 4.0 mph 8.0 mph 84% 0.00 in
08:59 70.7 °F 64.9 °F 29.90 in South 4.0 mph 8.0 mph 82% 0.00 in
09:04 71.5 °F 65.7 °F 29.89 in SSW 2.0 mph 8.0 mph 82% 0.00 in
09:09 72.2 °F 66.1 °F 29.89 in SW 5.0 mph 10.0 mph 81% 0.00 in
09:14 72.7 °F 66.2 °F 29.89 in SW 4.0 mph 11.0 mph 80% 0.00 in
09:19 73.3 °F 66.4 °F 29.89 in SSW 3.0 mph 11.0 mph 79% 0.00 in
09:24 73.8 °F 66.9 °F 29.89 in WSW 1.0 mph 9.0 mph 79% 0.00 in
09:29 74.2 °F 66.9 °F 29.90 in SSW 4.0 mph 10.0 mph 78% 0.00 in
09:34 74.5 °F 67.2 °F 29.90 in West 2.0 mph 10.0 mph 78% 0.00 in
09:39 74.8 °F 67.1 °F 29.90 in SW 4.0 mph 11.0 mph 77% 0.00 in
09:44 74.2 °F 66.5 °F 29.90 in SW 4.0 mph 11.0 mph 77% 0.00 in
09:49 73.8 °F 66.5 °F 29.90 in WSW 2.0 mph 9.0 mph 78% 0.00 in
09:54 73.0 °F 66.1 °F 29.90 in Calm   8.0 mph 79% 0.00 in
09:59 72.5 °F 66.0 °F 29.90 in Calm   8.0 mph 80% 0.00 in
10:04 72.3 °F 65.8 °F 29.90 in SW 2.0 mph 7.0 mph 80% 0.00 in
10:09 72.1 °F 66.0 °F 29.90 in SW 1.0 mph 5.0 mph 81% 0.00 in
10:14 71.8 °F 65.7 °F 29.90 in SW 1.0 mph 5.0 mph 81% 0.00 in
10:19 71.5 °F 65.7 °F 29.90 in Calm   5.0 mph 82% 0.00 in
10:24 71.5 °F 65.7 °F 29.90 in Calm   4.0 mph 82% 0.00 in
10:29 71.4 °F 65.6 °F 29.90 in Calm   1.0 mph 82% 0.00 in
10:34 71.4 °F 66.0 °F 29.90 in Calm   1.0 mph 83% 0.00 in
10:39 71.5 °F 66.1 °F 29.90 in Calm   1.0 mph 83% 0.00 in
10:44 71.5 °F 66.1 °F 29.90 in Calm   1.0 mph 83% 0.00 in
10:49 71.5 °F 65.7 °F 29.90 in SW 1.0 mph 4.0 mph 82% 0.00 in
10:54 71.6 °F 65.8 °F 29.89 in SW 1.0 mph 4.0 mph 82% 0.00 in
10:59 71.6 °F 65.1 °F 29.89 in Calm   4.0 mph 80% 0.00 in
11:04 71.6 °F 65.5 °F 29.89 in Calm   1.0 mph 81% 0.00 in
11:09 71.7 °F 65.6 °F 29.89 in Calm   1.0 mph 81% 0.00 in
11:14 72.0 °F 65.5 °F 29.89 in SW 1.0 mph 3.0 mph 80% 0.00 in
11:19 72.1 °F 65.6 °F 29.90 in Calm   3.0 mph 80% 0.00 in
11:24 72.5 °F 66.0 °F 29.90 in Calm   1.0 mph 80% 0.00 in
11:29 73.5 °F 67.3 °F 29.90 in Calm   1.0 mph 81% 0.00 in
11:34 74.5 °F 66.8 °F 29.89 in Calm     77% 0.00 in
11:39 75.7 °F 68.4 °F 29.89 in SW 1.0 mph 6.0 mph 78% 0.00 in
11:44 76.5 °F 67.6 °F 29.89 in Calm   6.0 mph 74% 0.00 in
11:49 77.1 °F 67.4 °F 29.89 in Calm   6.0 mph 72% 0.00 in
11:54 77.8 °F 68.9 °F 29.89 in Calm   4.0 mph 74% 0.00 in
11:59 78.1 °F 68.3 °F 29.89 in Calm   1.0 mph 72% 0.00 in
12:04 78.4 °F 68.2 °F 29.89 in Calm   3.0 mph 71% 0.00 in
12:09 78.7 °F 69.3 °F 29.89 in Calm   3.0 mph 73% 0.00 in
12:14 79.3 °F 68.7 °F 29.88 in Calm     70% 0.00 in
12:19 79.5 °F 68.9 °F 29.88 in Calm     70% 0.00 in
12:24 79.8 °F 67.4 °F 29.88 in Calm     66% 0.00 in
12:29 79.5 °F 67.6 °F 29.88 in Calm     67% 0.00 in
12:34 79.3 °F 67.4 °F 29.87 in ENE 2.0 mph 4.0 mph 67% 0.00 in
12:39 78.9 °F 68.7 °F 29.88 in Calm   5.0 mph 71% 0.00 in
12:44 78.7 °F 68.1 °F 29.88 in Calm   5.0 mph 70% 0.00 in
12:49 78.7 °F 68.5 °F 29.88 in Calm   4.0 mph 71% 0.00 in
12:54 78.7 °F 67.7 °F 29.88 in NE 3.0 mph 5.0 mph 69% 0.00 in
12:59 78.7 °F 68.5 °F 29.87 in East 1.0 mph 5.0 mph 71% 0.00 in
13:04 79.6 °F 69.0 °F 29.87 in Calm   4.0 mph 70% 0.00 in
13:09 80.1 °F 69.0 °F 29.87 in Calm   1.0 mph 69% 0.00 in
13:14 80.4 °F 68.0 °F 29.87 in Calm   1.0 mph 66% 0.00 in
13:19 80.9 °F 68.9 °F 29.86 in Calm   1.0 mph 67% 0.00 in
13:24 80.9 °F 68.0 °F 29.86 in Calm   1.0 mph 65% 0.00 in
13:29 80.4 °F 68.0 °F 29.86 in Calm   1.0 mph 66% 0.00 in
13:34 80.2 °F 67.8 °F 29.86 in Calm     66% 0.00 in
13:39 79.9 °F 67.1 °F 29.86 in Calm   1.0 mph 65% 0.00 in
13:44 79.3 °F 66.5 °F 29.86 in Calm   1.0 mph 65% 0.00 in
13:49 78.8 °F 67.8 °F 29.86 in Calm   1.0 mph 69% 0.00 in
13:54 78.7 °F 67.7 °F 29.85 in Calm   1.0 mph 69% 0.00 in
13:59 78.7 °F 67.7 °F 29.86 in Calm   1.0 mph 69% 0.00 in
14:04 79.4 °F 68.4 °F 29.86 in Calm   1.0 mph 69% 0.00 in
14:09 79.8 °F 67.9 °F 29.85 in Calm   1.0 mph 67% 0.00 in
14:14 80.0 °F 67.6 °F 29.85 in SE 1.0 mph 3.0 mph 66% 0.00 in
14:19 79.7 °F 67.3 °F 29.85 in Calm   3.0 mph 66% 0.00 in
14:24 79.6 °F 69.0 °F 29.85 in Calm   1.0 mph 70% 0.00 in
14:29 79.4 °F 69.2 °F 29.85 in Calm   1.0 mph 71% 0.00 in
14:34 79.2 °F 68.6 °F 29.85 in ENE 1.0 mph 4.0 mph 70% 0.00 in
14:39 78.7 °F 67.7 °F 29.85 in Calm   7.0 mph 69% 0.00 in
14:44 78.2 °F 68.0 °F 29.85 in NE 1.0 mph 7.0 mph 71% 0.00 in
14:49 78.0 °F 68.7 °F 29.85 in Calm   3.0 mph 73% 0.00 in
14:54 77.8 °F 68.1 °F 29.85 in Calm     72% 0.00 in
14:59 77.6 °F 68.7 °F 29.85 in Calm   2.0 mph 74% 0.00 in
15:04 77.3 °F 69.2 °F 29.85 in Calm   2.0 mph 76% 0.00 in
15:09 77.0 °F 68.9 °F 29.85 in Calm     76% 0.00 in
15:14 76.8 °F 69.4 °F 29.85 in Calm     78% 0.00 in
15:19 76.4 °F 69.0 °F 29.85 in Calm     78% 0.00 in
15:24 76.2 °F 69.2 °F 29.85 in Calm     79% 0.00 in
15:29 75.8 °F 69.2 °F 29.86 in Calm     80% 0.00 in
15:34 75.4 °F 69.2 °F 29.86 in Calm     81% 0.00 in
15:40 74.9 °F 69.0 °F 29.86 in Calm     82% 0.01 in
15:49 73.7 °F 68.9 °F 29.87 in Calm   2.0 mph 85% 0.02 in
15:54 73.2 °F 68.4 °F 29.86 in WSW 2.0 mph 4.0 mph 85% 0.04 in
15:59 72.8 °F 68.4 °F 29.85 in Calm   4.0 mph 86% 0.06 in
16:04 72.8 °F 69.0 °F 29.85 in Calm   3.0 mph 88% 0.07 in
16:09 72.8 °F 69.0 °F 29.84 in North 1.0 mph 3.0 mph 88% 0.08 in
16:14 72.9 °F 69.5 °F 29.84 in Calm   3.0 mph 89% 0.08 in
16:19 73.1 °F 70.0 °F 29.84 in Calm     90% 0.08 in
16:24 73.1 °F 69.7 °F 29.84 in Calm     89% 0.08 in
16:29 73.2 °F 70.1 °F 29.85 in Calm     90% 0.08 in
16:34 73.2 °F 69.8 °F 29.84 in Calm   1.0 mph 89% 0.08 in
16:39 73.1 °F 69.7 °F 29.84 in Calm   1.0 mph 89% 0.08 in
16:44 73.4 °F 70.0 °F 29.85 in Calm     89% 0.08 in
16:49 73.5 °F 70.1 °F 29.85 in Calm     89% 0.08 in
16:54 73.6 °F 70.2 °F 29.85 in Calm     89% 0.08 in
16:59 73.9 °F 70.5 °F 29.85 in Calm   1.0 mph 89% 0.08 in
17:04 74.0 °F 70.6 °F 29.85 in Calm   1.0 mph 89% 0.08 in
17:09 73.8 °F 70.4 °F 29.84 in Calm     89% 0.08 in
17:14 73.6 °F 69.8 °F 29.85 in Calm   3.0 mph 88% 0.08 in
17:19 73.6 °F 69.8 °F 29.84 in Calm   3.0 mph 88% 0.08 in
17:24 73.4 °F 69.6 °F 29.84 in Calm     88% 0.08 in
17:29 73.4 °F 70.0 °F 29.84 in Calm     89% 0.08 in
17:34 73.2 °F 69.8 °F 29.84 in Calm   1.0 mph 89% 0.08 in
17:39 72.9 °F 69.5 °F 29.84 in Calm   1.0 mph 89% 0.08 in
17:44 72.6 °F 69.2 °F 29.84 in Calm   1.0 mph 89% 0.08 in
17:49 72.2 °F 68.8 °F 29.85 in Calm   2.0 mph 89% 0.08 in
17:54 72.0 °F 68.6 °F 29.85 in Calm   2.0 mph 89% 0.08 in
17:59 72.0 °F 68.9 °F 29.85 in Calm     90% 0.08 in
18:04 72.0 °F 68.9 °F 29.85 in Calm     90% 0.08 in
18:09 71.9 °F 68.8 °F 29.85 in Calm     90% 0.08 in
18:19 71.7 °F 68.6 °F 29.86 in Calm     90% 0.08 in
18:24 71.7 °F 68.9 °F 29.86 in Calm     91% 0.08 in
18:29 71.7 °F 68.9 °F 29.86 in Calm     91% 0.08 in
18:34 71.7 °F 68.9 °F 29.86 in Calm     91% 0.08 in
18:39 71.6 °F 68.8 °F 29.85 in Calm     91% 0.08 in
18:44 71.7 °F 68.9 °F 29.85 in Calm     91% 0.08 in
18:49 71.7 °F 68.9 °F 29.85 in Calm     91% 0.08 in
18:54 71.6 °F 68.8 °F 29.85 in Calm     91% 0.08 in
18:59 71.5 °F 69.1 °F 29.86 in Calm     92% 0.08 in
19:04 71.3 °F 68.9 °F 29.86 in Calm     92% 0.08 in
19:09 71.2 °F 68.4 °F 29.86 in Calm     91% 0.08 in
19:14 70.9 °F 68.1 °F 29.86 in Calm     91% 0.08 in
19:19 70.7 °F 67.9 °F 29.85 in Calm     91% 0.08 in
19:24 70.5 °F 68.1 °F 29.85 in Calm     92% 0.08 in
19:29 70.3 °F 67.5 °F 29.85 in Calm     91% 0.08 in
19:34 70.1 °F 67.4 °F 29.85 in Calm   1.0 mph 91% 0.08 in
19:39 70.0 °F 67.6 °F 29.85 in Calm   1.0 mph 92% 0.08 in
19:44 69.8 °F 67.4 °F 29.85 in Calm     92% 0.08 in
19:49 69.7 °F 67.0 °F 29.85 in Calm     91% 0.08 in
19:54 69.5 °F 67.1 °F 29.85 in Calm     92% 0.08 in
19:59 69.4 °F 67.0 °F 29.86 in Calm     92% 0.08 in
20:04 69.5 °F 67.1 °F 29.85 in Calm     92% 0.08 in
20:09 69.5 °F 67.1 °F 29.86 in Calm   3.0 mph 92% 0.08 in
20:14 69.4 °F 67.0 °F 29.86 in Calm   3.0 mph 92% 0.08 in
20:19 69.4 °F 67.0 °F 29.86 in Calm   4.0 mph 92% 0.08 in
20:24 69.2 °F 67.1 °F 29.87 in Calm   4.0 mph 93% 0.08 in
20:29 69.2 °F 66.8 °F 29.87 in Calm   1.0 mph 92% 0.08 in
20:34 69.0 °F 66.6 °F 29.86 in Calm   2.0 mph 92% 0.08 in
20:39 68.9 °F 66.5 °F 29.86 in Calm   4.0 mph 92% 0.09 in
20:44 68.8 °F 66.4 °F 29.86 in Calm   4.0 mph 92% 0.11 in
20:49 68.7 °F 66.6 °F 29.86 in Calm   1.0 mph 93% 0.13 in
20:54 68.6 °F 66.5 °F 29.87 in Calm     93% 0.15 in
20:59 68.5 °F 66.1 °F 29.87 in Calm   3.0 mph 92% 0.19 in
21:04 68.4 °F 66.3 °F 29.86 in Calm   3.0 mph 93% 0.23 in
21:09 68.4 °F 66.3 °F 29.86 in Calm   1.0 mph 93% 0.25 in
21:14 68.3 °F 66.2 °F 29.86 in Calm   1.0 mph 93% 0.26 in
21:19 68.3 °F 66.2 °F 29.85 in Calm   1.0 mph 93% 0.26 in
21:24 68.3 °F 66.2 °F 29.85 in Calm     93% 0.26 in
21:29 68.3 °F 66.2 °F 29.85 in Calm     93% 0.26 in
21:34 68.4 °F 66.6 °F 29.85 in Calm     94% 0.26 in
21:39 68.4 °F 66.6 °F 29.85 in Calm     94% 0.26 in
21:44 68.3 °F 66.5 °F 29.85 in Calm     94% 0.26 in
21:49 68.2 °F 66.4 °F 29.85 in Calm     94% 0.26 in
21:54 68.1 °F 66.3 °F 29.85 in Calm     94% 0.27 in
21:59 68.1 °F 66.3 °F 29.85 in Calm     94% 0.27 in
22:04 68.0 °F 66.2 °F 29.85 in Calm     94% 0.27 in
22:09 67.8 °F 66.0 °F 29.85 in Calm     94% 0.27 in
22:14 67.6 °F 65.8 °F 29.85 in Calm     94% 0.27 in
22:19 67.5 °F 65.7 °F 29.85 in Calm     94% 0.27 in
22:24 67.4 °F 65.6 °F 29.85 in Calm     94% 0.27 in
22:29 67.3 °F 65.5 °F 29.84 in Calm     94% 0.27 in
22:34 67.4 °F 65.6 °F 29.85 in Calm     94% 0.27 in
22:39 67.3 °F 65.5 °F 29.85 in Calm     94% 0.27 in
22:44 67.2 °F 65.4 °F 29.85 in Calm     94% 0.27 in
22:49 67.1 °F 65.3 °F 29.85 in Calm     94% 0.27 in
22:54 66.9 °F 65.4 °F 29.85 in Calm     95% 0.27 in
22:59 66.7 °F 64.9 °F 29.84 in Calm     94% 0.27 in
23:04 66.7 °F 65.2 °F 29.84 in Calm     95% 0.27 in
23:09 66.7 °F 65.2 °F 29.84 in Calm     95% 0.27 in
23:14 66.7 °F 65.2 °F 29.84 in Calm     95% 0.27 in
23:19 66.8 °F 65.3 °F 29.84 in Calm     95% 0.27 in
23:24 66.7 °F 65.2 °F 29.84 in Calm     95% 0.27 in
23:29 66.7 °F 65.2 °F 29.84 in Calm     95% 0.27 in
23:34 66.7 °F 65.2 °F 29.84 in Calm     95% 0.27 in
23:39 66.7 °F 65.2 °F 29.83 in Calm     95% 0.27 in
23:44 66.7 °F 65.2 °F 29.83 in Calm     95% 0.27 in
23:49 66.8 °F 65.6 °F 29.83 in Calm     96% 0.27 in
23:54 66.9 °F 65.7 °F 29.82 in Calm     96% 0.27 in
23:59 66.9 °F 65.7 °F 29.82 in Calm     96% 0.27 in
Westford Weather
Compliments of Weather Underground

 
 
Current Radar Loop:

Copyright © WestfordWeather.net 2007-2014. All rights reserved.